createdAt,value
2019-03-11T00:00:54.849Z,33.50
2019-03-11T00:03:27.860Z,33.50
2019-03-11T00:06:00.919Z,33.50
2019-03-11T00:08:35.266Z,33.40
2019-03-11T00:11:08.186Z,33.40
2019-03-11T00:13:42.251Z,33.40
2019-03-11T00:16:16.491Z,33.30
2019-03-11T00:18:50.388Z,33.30
2019-03-11T00:21:23.425Z,33.30
2019-03-11T00:23:56.200Z,33.10
2019-03-11T00:26:30.377Z,33.00
2019-03-11T00:29:03.332Z,32.90
2019-03-11T00:31:38.754Z,32.90
2019-03-11T00:34:11.630Z,33.10
2019-03-11T00:36:47.329Z,33.10
2019-03-11T00:39:20.148Z,33.30
2019-03-11T00:41:54.421Z,33.30
2019-03-11T00:44:27.142Z,33.20
2019-03-11T00:47:01.471Z,33.10
2019-03-11T00:49:34.466Z,33.00
2019-03-11T00:52:07.518Z,33.10
2019-03-11T00:54:40.434Z,33.10
2019-03-11T00:57:13.675Z,32.90
2019-03-11T00:59:47.376Z,32.90
2019-03-11T01:02:21.792Z,32.70
2019-03-11T01:04:57.454Z,32.70
2019-03-11T01:07:31.438Z,32.90
2019-03-11T01:10:05.053Z,32.80
2019-03-11T01:12:38.308Z,32.90
2019-03-11T01:15:13.562Z,33.00
2019-03-11T01:17:48.285Z,33.10
2019-03-11T01:20:21.774Z,33.10
2019-03-11T01:22:56.862Z,33.30
2019-03-11T01:25:31.015Z,33.40
2019-03-11T01:28:06.582Z,33.50
2019-03-11T01:30:42.455Z,33.50
2019-03-11T01:33:17.142Z,33.40
2019-03-11T01:35:52.128Z,33.60
2019-03-11T01:38:25.571Z,33.60
2019-03-11T01:41:01.329Z,33.70
2019-03-11T01:43:34.833Z,34.00
2019-03-11T01:46:08.673Z,34.30
2019-03-11T01:48:41.616Z,34.40
2019-03-11T01:51:16.597Z,34.40
2019-03-11T01:53:51.380Z,34.30
2019-03-11T01:56:26.784Z,34.50
2019-03-11T01:58:59.597Z,34.40
2019-03-11T02:01:32.889Z,34.50
2019-03-11T02:04:07.117Z,34.70
2019-03-11T02:06:40.708Z,34.70
2019-03-11T02:09:14.685Z,35.10
2019-03-11T02:11:49.582Z,35.30
2019-03-11T02:14:22.534Z,35.40
2019-03-11T02:16:55.340Z,35.50
2019-03-11T02:19:28.330Z,35.70
2019-03-11T02:22:01.406Z,36.00
2019-03-11T02:24:34.282Z,36.00
2019-03-11T02:27:07.346Z,36.00
2019-03-11T02:29:41.474Z,36.30
2019-03-11T02:32:14.757Z,36.60
2019-03-11T02:34:47.679Z,36.80
2019-03-11T02:37:21.680Z,36.70
2019-03-11T02:39:58.369Z,36.90
2019-03-11T02:42:31.645Z,37.10
2019-03-11T02:45:04.412Z,37.30
2019-03-11T02:47:40.988Z,37.30
2019-03-11T02:50:14.145Z,37.30
2019-03-11T02:52:48.550Z,37.20
2019-03-11T02:55:21.407Z,37.30
2019-03-11T02:57:55.336Z,37.20
2019-03-11T03:00:31.143Z,37.10
2019-03-11T03:03:11.465Z,37.00
2019-03-11T03:05:45.552Z,36.70
2019-03-11T03:08:20.565Z,36.40
2019-03-11T03:10:54.517Z,35.90
2019-03-11T03:13:27.682Z,35.30
2019-03-11T03:16:00.458Z,34.50
2019-03-11T03:18:35.710Z,33.50
2019-03-11T03:21:10.871Z,32.70
2019-03-11T03:23:44.754Z,31.80
2019-03-11T03:26:20.025Z,31.20
2019-03-11T03:28:53.480Z,30.70
2019-03-11T03:31:27.605Z,30.10
2019-03-11T03:34:01.785Z,29.60
2019-03-11T03:36:35.007Z,29.30
2019-03-11T03:39:08.540Z,28.90
2019-03-11T03:41:45.376Z,28.50
2019-03-11T03:44:18.242Z,28.20
2019-03-11T03:46:52.316Z,28.10
2019-03-11T03:49:26.523Z,27.90
2019-03-11T03:52:00.646Z,27.80
2019-03-11T03:54:33.368Z,27.70
2019-03-11T03:57:07.104Z,27.60
2019-03-11T03:59:39.714Z,27.50
2019-03-11T04:02:13.043Z,27.40
2019-03-11T04:04:45.922Z,27.30
2019-03-11T04:07:18.596Z,27.20
2019-03-11T04:09:53.369Z,27.10
2019-03-11T04:12:26.214Z,27.00
2019-03-11T04:14:59.080Z,26.80
2019-03-11T04:17:31.972Z,26.80
2019-03-11T04:20:05.707Z,26.70
2019-03-11T04:22:38.464Z,26.70
2019-03-11T04:25:13.357Z,26.60
2019-03-11T04:27:46.101Z,26.50
2019-03-11T04:30:23.990Z,26.50
2019-03-11T04:32:56.830Z,26.40
2019-03-11T04:35:29.557Z,26.40
2019-03-11T04:38:03.440Z,26.40
2019-03-11T04:40:36.125Z,26.30
2019-03-11T04:43:09.122Z,26.20
2019-03-11T04:45:42.002Z,26.20
2019-03-11T04:48:15.135Z,26.10
2019-03-11T04:50:49.364Z,26.10
2019-03-11T04:53:23.364Z,25.90
2019-03-11T04:55:56.310Z,25.90
2019-03-11T04:58:29.379Z,25.80
2019-03-11T05:01:02.270Z,25.80
2019-03-11T05:03:36.259Z,25.80
2019-03-11T05:06:09.580Z,25.70
2019-03-11T05:08:42.496Z,25.60
2019-03-11T05:11:15.558Z,25.50
2019-03-11T05:13:48.591Z,25.40
2019-03-11T05:16:21.834Z,25.40
2019-03-11T05:18:54.648Z,25.30
2019-03-11T05:21:28.696Z,25.30
2019-03-11T05:24:01.412Z,25.20
2019-03-11T05:26:34.887Z,25.20
2019-03-11T05:29:07.461Z,25.10
2019-03-11T05:31:41.132Z,25.10
2019-03-11T05:34:13.959Z,25.00
2019-03-11T05:36:47.258Z,24.90
2019-03-11T05:39:20.011Z,24.90
2019-03-11T05:41:53.018Z,24.80
2019-03-11T05:44:25.923Z,24.80
2019-03-11T05:46:59.176Z,24.70
2019-03-11T05:49:31.869Z,24.60
2019-03-11T05:52:04.804Z,24.60
2019-03-11T05:54:38.822Z,24.50
2019-03-11T05:57:11.480Z,24.50
2019-03-11T05:59:44.552Z,24.40
2019-03-11T06:02:17.081Z,24.30
2019-03-11T06:04:51.441Z,24.30
2019-03-11T06:07:24.222Z,24.20
2019-03-11T06:09:57.210Z,24.20
2019-03-11T06:12:30.100Z,24.20
2019-03-11T06:15:03.354Z,24.20
2019-03-11T06:17:37.541Z,24.20
2019-03-11T06:20:13.829Z,24.20
2019-03-11T06:22:46.854Z,24.20
2019-03-11T06:25:20.035Z,24.10
2019-03-11T06:27:53.037Z,24.10
2019-03-11T06:30:25.948Z,24.10
2019-03-11T06:32:59.243Z,24.10
2019-03-11T06:35:32.197Z,24.00
2019-03-11T06:38:05.164Z,24.00
2019-03-11T06:40:37.937Z,23.90
2019-03-11T06:43:10.947Z,23.90
2019-03-11T06:45:43.751Z,23.80
2019-03-11T06:48:16.782Z,23.70
2019-03-11T06:50:49.499Z,23.70
2019-03-11T06:53:23.265Z,23.60
2019-03-11T06:55:55.886Z,23.60
2019-03-11T06:58:47.486Z,23.50
2019-03-11T07:01:20.082Z,23.40
2019-03-11T07:03:53.162Z,23.30
2019-03-11T07:06:26.342Z,23.30
2019-03-11T07:08:59.465Z,23.20
2019-03-11T07:11:32.245Z,23.20
2019-03-11T07:14:05.076Z,23.20
2019-03-11T07:16:37.822Z,23.10
2019-03-11T07:19:10.805Z,23.10
2019-03-11T07:21:43.673Z,23.10
2019-03-11T07:24:20.539Z,23.00
2019-03-11T07:26:53.199Z,23.00
2019-03-11T07:29:26.383Z,22.90
2019-03-11T07:31:59.309Z,22.90
2019-03-11T07:34:32.647Z,22.90
2019-03-11T07:37:05.486Z,22.90
2019-03-11T07:39:39.152Z,22.90
2019-03-11T07:42:11.870Z,22.90
2019-03-11T07:44:44.830Z,22.90
2019-03-11T07:47:17.461Z,22.90
2019-03-11T07:49:50.628Z,22.80
2019-03-11T07:52:23.593Z,22.80
2019-03-11T07:54:56.691Z,22.80
2019-03-11T07:57:29.515Z,22.70
2019-03-11T08:00:02.533Z,22.70
2019-03-11T08:02:35.446Z,22.70
2019-03-11T08:05:09.844Z,22.70
2019-03-11T08:07:42.970Z,22.70
2019-03-11T08:10:28.417Z,22.60
2019-03-11T08:13:01.328Z,22.60
2019-03-11T08:15:34.298Z,22.50
2019-03-11T08:18:07.086Z,22.50
2019-03-11T08:20:40.148Z,22.50
2019-03-11T08:23:12.947Z,22.40
2019-03-11T08:25:47.277Z,22.40
2019-03-11T08:28:20.074Z,22.40
2019-03-11T08:30:53.693Z,22.40
2019-03-11T08:33:26.480Z,22.30
2019-03-11T08:35:59.661Z,22.30
2019-03-11T08:38:32.609Z,22.20
2019-03-11T08:41:05.762Z,22.20
2019-03-11T08:43:38.676Z,22.20
2019-03-11T08:46:12.361Z,22.20
2019-03-11T08:48:45.122Z,22.10
2019-03-11T08:51:17.861Z,22.10
2019-03-11T08:53:50.842Z,22.00
2019-03-11T08:56:24.590Z,22.00
2019-03-11T08:58:57.474Z,22.00
2019-03-11T09:01:30.395Z,21.90
2019-03-11T09:04:03.409Z,21.90
2019-03-11T09:06:37.579Z,21.90
2019-03-11T09:09:10.681Z,21.90
2019-03-11T09:11:43.519Z,21.80
2019-03-11T09:14:16.467Z,21.80
2019-03-11T09:16:49.277Z,21.80
2019-03-11T09:19:22.365Z,21.80
2019-03-11T09:21:55.317Z,21.80
2019-03-11T09:24:28.212Z,21.80
2019-03-11T09:27:01.054Z,21.80
2019-03-11T09:29:33.876Z,21.80
2019-03-11T09:32:06.710Z,21.80
2019-03-11T09:34:39.449Z,21.80
2019-03-11T09:37:12.475Z,21.80
2019-03-11T09:39:45.100Z,21.90
2019-03-11T09:42:17.971Z,21.90
2019-03-11T09:44:52.023Z,21.90
2019-03-11T09:47:25.428Z,21.90
2019-03-11T09:49:58.817Z,21.80
2019-03-11T09:52:31.800Z,21.80
2019-03-11T09:55:04.560Z,21.80
2019-03-11T09:57:38.052Z,21.80
2019-03-11T10:00:15.596Z,21.80
2019-03-11T10:02:52.642Z,21.70
2019-03-11T10:05:23.327Z,21.70
2019-03-11T10:07:56.642Z,21.70
2019-03-11T10:10:30.934Z,21.60
2019-03-11T10:13:04.043Z,21.60
2019-03-11T10:15:36.791Z,21.50
2019-03-11T10:18:09.836Z,21.50
2019-03-11T10:20:42.731Z,21.40
2019-03-11T10:23:15.819Z,21.40
2019-03-11T10:25:48.492Z,21.40
2019-03-11T10:28:21.437Z,21.30
2019-03-11T10:30:55.197Z,21.30
2019-03-11T10:33:28.127Z,21.20
2019-03-11T10:36:01.062Z,21.20
2019-03-11T10:38:33.929Z,21.20
2019-03-11T10:41:06.658Z,21.10
2019-03-11T10:43:39.706Z,21.10
2019-03-11T10:46:12.614Z,21.10
2019-03-11T10:48:45.691Z,21.10
2019-03-11T10:51:18.391Z,21.00
2019-03-11T10:53:51.342Z,21.00
2019-03-11T10:56:24.250Z,21.00
2019-03-11T10:58:57.355Z,21.00
2019-03-11T11:01:30.147Z,20.90
2019-03-11T11:04:03.069Z,20.90
2019-03-11T11:06:35.869Z,20.90
2019-03-11T11:09:09.725Z,20.90
2019-03-11T11:11:42.461Z,20.90
2019-03-11T11:14:15.269Z,20.90
2019-03-11T11:16:48.273Z,20.90
2019-03-11T11:19:20.900Z,20.90
2019-03-11T11:21:53.726Z,20.90
2019-03-11T11:24:27.189Z,20.80
2019-03-11T11:26:59.969Z,20.80
2019-03-11T11:29:32.750Z,20.80
2019-03-11T11:32:05.715Z,20.70
2019-03-11T11:34:38.526Z,20.70
2019-03-11T11:37:13.032Z,20.70
2019-03-11T11:39:46.540Z,20.70
2019-03-11T11:42:19.345Z,20.60
2019-03-11T11:44:52.648Z,20.60
2019-03-11T11:47:25.060Z,20.60
2019-03-11T11:49:58.065Z,20.60
2019-03-11T11:52:30.869Z,20.60
2019-03-11T11:55:03.865Z,20.60
2019-03-11T11:57:36.623Z,20.50
2019-03-11T12:00:11.942Z,20.50
2019-03-11T12:02:44.710Z,20.50
2019-03-11T12:05:19.411Z,20.50
2019-03-11T12:07:52.568Z,20.50
2019-03-11T12:10:26.213Z,20.40
2019-03-11T12:12:59.120Z,20.40
2019-03-11T12:15:31.853Z,20.40
2019-03-11T12:18:04.984Z,20.30
2019-03-11T12:20:37.621Z,20.30
2019-03-11T12:23:11.385Z,20.30
2019-03-11T12:25:44.192Z,20.20
2019-03-11T12:28:17.160Z,20.20
2019-03-11T12:30:49.959Z,20.20
2019-03-11T12:33:23.486Z,20.20
2019-03-11T12:35:55.988Z,20.20
2019-03-11T12:38:29.586Z,20.20
2019-03-11T12:41:02.514Z,20.20
2019-03-11T12:43:35.474Z,20.20
2019-03-11T12:46:08.298Z,20.20
2019-03-11T12:48:41.203Z,20.10
2019-03-11T12:51:13.905Z,20.10
2019-03-11T12:53:46.778Z,20.00
2019-03-11T12:56:19.670Z,19.90
2019-03-11T12:58:52.389Z,19.90
2019-03-11T13:01:25.412Z,19.80
2019-03-11T13:03:58.586Z,19.80
2019-03-11T13:06:32.523Z,19.70
2019-03-11T13:09:05.373Z,19.70
2019-03-11T13:11:38.399Z,19.60
2019-03-11T13:14:11.239Z,19.60
2019-03-11T13:16:44.620Z,19.60
2019-03-11T13:19:17.331Z,19.50
2019-03-11T13:21:50.226Z,19.50
2019-03-11T13:24:23.462Z,19.40
2019-03-11T13:26:56.752Z,19.40
2019-03-11T13:30:08.533Z,19.30
2019-03-11T13:32:41.504Z,19.30
2019-03-11T13:35:14.834Z,19.20
2019-03-11T13:37:47.662Z,19.20
2019-03-11T13:40:20.448Z,19.20
2019-03-11T13:42:53.272Z,19.10
2019-03-11T13:45:25.885Z,19.10
2019-03-11T13:47:59.065Z,19.10
2019-03-11T13:50:32.075Z,19.10
2019-03-11T13:53:04.846Z,19.10
2019-03-11T13:55:37.845Z,19.10
2019-03-11T13:58:10.499Z,19.10
2019-03-11T14:00:43.524Z,19.10
2019-03-11T14:03:16.054Z,19.10
2019-03-11T14:05:48.978Z,19.20
2019-03-11T14:08:21.751Z,19.20
2019-03-11T14:10:54.539Z,19.20
2019-03-11T14:13:27.552Z,19.20
2019-03-11T14:16:00.164Z,19.30
2019-03-11T14:18:33.163Z,19.30
2019-03-11T14:21:05.853Z,19.30
2019-03-11T14:23:38.507Z,19.30
2019-03-11T14:27:03.789Z,19.30
2019-03-11T14:29:36.430Z,19.30
2019-03-11T14:32:10.582Z,19.30
2019-03-11T14:34:43.423Z,19.20
2019-03-11T14:37:16.467Z,19.20
2019-03-11T14:39:50.077Z,19.20
2019-03-11T14:42:24.135Z,19.20
2019-03-11T14:44:57.232Z,19.10
2019-03-11T14:47:30.172Z,19.10
2019-03-11T14:50:03.593Z,19.10
2019-03-11T14:52:37.753Z,19.10
2019-03-11T14:55:11.312Z,19.20
2019-03-11T14:57:45.088Z,19.20
2019-03-11T15:00:21.606Z,19.20
2019-03-11T15:02:54.479Z,19.20
2019-03-11T15:05:27.148Z,19.30
2019-03-11T15:08:00.394Z,19.30
2019-03-11T15:10:33.338Z,19.30
2019-03-11T15:13:06.306Z,19.30
2019-03-11T15:15:39.280Z,19.30
2019-03-11T15:18:42.046Z,19.30
2019-03-11T15:21:14.860Z,19.20
2019-03-11T15:23:47.679Z,19.20
2019-03-11T15:26:25.186Z,19.20
2019-03-11T15:28:54.629Z,19.20
2019-03-11T15:31:27.473Z,19.20
2019-03-11T15:34:00.316Z,19.20
2019-03-11T15:37:21.269Z,19.20
2019-03-11T15:40:16.612Z,19.30
2019-03-11T15:42:52.280Z,19.20
2019-03-11T15:45:25.068Z,19.20
2019-03-11T15:47:58.175Z,19.20
2019-03-11T15:50:35.067Z,19.20
2019-03-11T15:53:08.067Z,19.20
2019-03-11T15:55:40.827Z,19.20
2019-03-11T15:58:22.794Z,19.20
2019-03-11T16:00:56.097Z,19.20
2019-03-11T16:03:36.023Z,19.20
2019-03-11T16:06:03.289Z,19.20
2019-03-11T16:08:36.098Z,19.20
2019-03-11T16:11:09.175Z,19.20
2019-03-11T16:13:42.060Z,19.20
2019-03-11T16:16:15.262Z,19.10
2019-03-11T16:18:48.014Z,19.10
2019-03-11T16:21:20.924Z,19.10
2019-03-11T16:23:54.626Z,19.00
2019-03-11T16:27:12.535Z,19.00
2019-03-11T16:30:14.300Z,18.90
2019-03-11T16:32:58.458Z,18.90
2019-03-11T16:35:21.769Z,18.80
2019-03-11T16:37:54.828Z,18.80
2019-03-11T16:40:27.689Z,18.80
2019-03-11T16:43:01.565Z,18.70
2019-03-11T16:45:34.448Z,18.70
2019-03-11T16:48:07.614Z,18.70
2019-03-11T16:50:40.316Z,18.70
2019-03-11T16:53:13.587Z,18.60
2019-03-11T16:55:56.258Z,18.60
2019-03-11T16:58:30.203Z,18.60
2019-03-11T17:01:04.016Z,18.50
2019-03-11T17:03:36.885Z,18.50
2019-03-11T17:06:09.649Z,18.40
2019-03-11T17:08:56.820Z,18.40
2019-03-11T17:11:29.532Z,18.40
2019-03-11T17:14:02.092Z,18.40
2019-03-11T17:16:35.107Z,18.40
2019-03-11T17:19:08.019Z,18.30
2019-03-11T17:21:40.765Z,18.30
2019-03-11T17:24:13.519Z,18.30
2019-03-11T17:26:46.634Z,18.20
2019-03-11T17:29:19.412Z,18.20
2019-03-11T17:31:52.413Z,18.20
2019-03-11T17:34:25.056Z,18.20
2019-03-11T17:36:57.792Z,18.20
2019-03-11T17:39:30.755Z,18.10
2019-03-11T17:42:03.558Z,18.10
2019-03-11T17:44:36.565Z,18.10
2019-03-11T17:47:09.518Z,18.10
2019-03-11T17:49:42.547Z,18.10
2019-03-11T17:52:15.379Z,18.10
2019-03-11T17:54:48.421Z,18.10
2019-03-11T17:57:21.163Z,18.00
2019-03-11T17:59:54.184Z,18.00
2019-03-11T18:02:26.796Z,18.00
2019-03-11T18:04:59.960Z,17.90
2019-03-11T18:07:32.938Z,17.90
2019-03-11T18:10:05.800Z,17.80
2019-03-11T18:12:38.773Z,17.80
2019-03-11T18:15:13.340Z,17.80
2019-03-11T18:17:46.284Z,17.80
2019-03-11T18:20:20.605Z,17.80
2019-03-11T18:22:53.467Z,17.80
2019-03-11T18:25:26.686Z,17.80
2019-03-11T18:27:59.657Z,17.80
2019-03-11T18:30:34.015Z,17.80
2019-03-11T18:33:06.957Z,17.80
2019-03-11T18:35:40.104Z,17.80
2019-03-11T18:38:12.931Z,17.80
2019-03-11T18:40:45.828Z,17.90
2019-03-11T18:43:20.978Z,17.90
2019-03-11T18:45:53.274Z,17.90
2019-03-11T18:48:26.425Z,18.00
2019-03-11T18:51:10.010Z,18.00
2019-03-11T18:53:33.634Z,18.10
2019-03-11T18:56:06.617Z,18.10
2019-03-11T18:58:39.888Z,18.30
2019-03-11T19:01:12.685Z,18.40
2019-03-11T19:03:45.810Z,18.50
2019-03-11T19:06:18.840Z,18.70
2019-03-11T19:08:52.289Z,18.90
2019-03-11T19:11:25.162Z,19.10
2019-03-11T19:13:58.369Z,19.30
2019-03-11T19:16:31.562Z,19.50
2019-03-11T19:19:05.266Z,19.70
2019-03-11T19:21:38.367Z,20.00
2019-03-11T19:24:11.356Z,20.20
2019-03-11T19:26:44.434Z,20.30
2019-03-11T19:29:17.910Z,20.40
2019-03-11T19:31:50.701Z,20.60
2019-03-11T19:34:23.726Z,20.70
2019-03-11T19:36:56.676Z,20.80
2019-03-11T19:39:29.869Z,20.80
2019-03-11T19:42:02.884Z,20.90
2019-03-11T19:44:36.131Z,21.00
2019-03-11T19:47:09.402Z,21.00
2019-03-11T19:49:43.457Z,21.10
2019-03-11T19:52:16.419Z,21.10
2019-03-11T19:54:49.589Z,21.20
2019-03-11T19:57:22.611Z,21.30
2019-03-11T19:59:55.821Z,21.50
2019-03-11T20:02:28.896Z,21.60
2019-03-11T20:05:01.789Z,21.80
2019-03-11T20:07:34.892Z,21.90
2019-03-11T20:10:08.543Z,22.10
2019-03-11T20:12:41.932Z,22.10
2019-03-11T20:15:15.840Z,22.10
2019-03-11T20:17:49.049Z,22.20
2019-03-11T20:20:22.955Z,22.20
2019-03-11T20:22:55.930Z,22.30
2019-03-11T20:25:38.773Z,22.40
2019-03-11T20:28:11.972Z,22.50
2019-03-11T20:30:45.625Z,22.60
2019-03-11T20:33:18.755Z,22.60
2019-03-11T20:35:51.734Z,22.80
2019-03-11T20:38:24.899Z,22.90
2019-03-11T20:40:57.962Z,23.00
2019-03-11T20:43:31.048Z,23.10
2019-03-11T20:46:04.105Z,23.20
2019-03-11T20:48:37.341Z,23.30
2019-03-11T20:51:10.976Z,23.40
2019-03-11T20:53:43.848Z,23.50
2019-03-11T20:56:16.888Z,23.50
2019-03-11T20:58:49.853Z,23.60
2019-03-11T21:01:23.191Z,23.70
2019-03-11T21:03:56.140Z,23.80
2019-03-11T21:06:29.231Z,23.90
2019-03-11T21:09:03.388Z,23.90
2019-03-11T21:11:36.470Z,24.00
2019-03-11T21:14:09.394Z,24.00
2019-03-11T21:16:42.572Z,23.90
2019-03-11T21:19:15.376Z,23.90
2019-03-11T21:21:48.849Z,24.00
2019-03-11T21:24:21.638Z,23.90
2019-03-11T21:26:55.337Z,24.00
2019-03-11T21:29:28.123Z,24.00
2019-03-11T21:32:01.211Z,24.10
2019-03-11T21:34:34.131Z,24.10
2019-03-11T21:37:07.573Z,24.00
2019-03-11T21:39:40.556Z,24.20
2019-03-11T21:42:13.811Z,24.30
2019-03-11T21:44:46.656Z,24.40
2019-03-11T21:47:19.865Z,25.20
2019-03-11T21:49:53.176Z,25.80
2019-03-11T21:52:26.651Z,26.30
2019-03-11T21:54:59.422Z,26.40
2019-03-11T21:57:32.430Z,26.70
2019-03-11T22:00:05.277Z,27.30
2019-03-11T22:02:38.378Z,27.10
2019-03-11T22:05:11.158Z,27.20
2019-03-11T22:07:45.601Z,27.80
2019-03-11T22:10:18.987Z,28.70
2019-03-11T22:12:52.085Z,29.50
2019-03-11T22:15:26.740Z,29.90
2019-03-11T22:17:59.569Z,29.70
2019-03-11T22:20:32.562Z,30.10
2019-03-11T22:23:05.773Z,30.70
2019-03-11T22:25:38.928Z,31.10
2019-03-11T22:28:11.731Z,30.80
2019-03-11T22:30:44.729Z,31.40
2019-03-11T22:33:17.494Z,31.90
2019-03-11T22:35:50.619Z,32.50
2019-03-11T22:38:23.488Z,32.20
2019-03-11T22:40:56.533Z,31.40
2019-03-11T22:43:29.436Z,31.20
2019-03-11T22:46:02.263Z,30.80
2019-03-11T22:48:35.484Z,30.10
2019-03-11T22:51:08.392Z,29.40
2019-03-11T22:53:41.428Z,28.90
2019-03-11T22:56:14.182Z,28.40
2019-03-11T22:58:47.278Z,27.90
2019-03-11T23:01:23.005Z,27.40
2019-03-11T23:03:56.193Z,27.10
2019-03-11T23:06:29.101Z,26.90
2019-03-11T23:09:02.222Z,26.70
2019-03-11T23:11:34.981Z,26.40
2019-03-11T23:14:10.066Z,26.20
2019-03-11T23:16:42.844Z,26.10
2019-03-11T23:19:15.877Z,25.90
2019-03-11T23:21:48.741Z,25.80
2019-03-11T23:24:21.660Z,25.70
2019-03-11T23:26:54.510Z,25.70
2019-03-11T23:29:27.513Z,25.60
2019-03-11T23:32:00.275Z,25.60
2019-03-11T23:34:33.257Z,25.70
2019-03-11T23:37:06.071Z,25.70
2019-03-11T23:39:39.169Z,25.70
2019-03-11T23:42:11.907Z,25.80
2019-03-11T23:44:45.952Z,25.80
2019-03-11T23:47:19.074Z,25.80
2019-03-11T23:49:52.217Z,26.00
2019-03-11T23:52:25.249Z,26.50
2019-03-11T23:54:58.154Z,26.70
2019-03-11T23:57:31.212Z,27.30
